Latest Coastal Weather Observations for Croker Island Airport

IDD60701

Issued at 6:31 pm CST Friday 18 September 2020 (issued every 10 minutes, with the page automatically refreshed every 10 minutes)

About coastal observations | Map of coastal stations | Coastal observations for NT | Marine services | Other Formats
Station Details ID: 014308 Name: CROKER ISLAND AIRPORT Lat: -11.16 Lon: 132.48 Height: 9.2 m
Data from the previous 72 hours. | See also: Recent months at Croker Island Airport
Date/Time
CST
Wind Sea
Height
m
Swell Vis
km
Cloud Weather Temp
°C
Press
hPa
Rain since
9am
mm
Dir  Spd
kts
Gust
kts
Height
m
Period
s
Dir
18/06:30pm ENE 7 11 - - - - - - - 27.9 1010.6 0.0
18/06:00pm E 7 11 - - - - - - - 28.8 1010.5 0.0
18/05:30pm ENE 8 11 - - - - - - - 29.5 1010.3 0.0
18/05:00pm ENE 9 13 - - - - - - - 30.6 1010.1 0.0
18/04:30pm ENE 8 14 - - - - - - - 30.2 1010.1 0.0
18/04:00pm E 9 15 - - - - - - - 30.4 1010.3 0.0
18/03:30pm ENE 10 14 - - - - - - - 30.9 1010.6 0.0
18/03:00pm E 10 15 - - - - - - - 31.4 1010.9 0.0
18/02:30pm E 10 18 - - - - - - - 31.7 1011.3 0.0
18/02:00pm ENE 10 17 - - - - - - - 32.0 1011.5 0.0
18/01:30pm ENE 9 16 - - - - - - - 32.5 1011.9 0.0
18/01:00pm E 11 19 - - - - - - - 32.2 1012.4 0.0
18/12:30pm ENE 11 17 - - - - - - - 31.7 1012.9 0.0
18/12:00pm E 9 14 - - - - - - - 32.1 1013.5 0.0
18/11:30am E 10 18 - - - - - - - 32.3 1014.0 0.0
18/11:00am E 9 14 - - - - - - - 30.7 1014.2 0.0
18/10:30am ENE 9 15 - - - - - - - 31.0 1014.3 0.0
18/10:00am E 7 12 - - - - - - - 29.9 1014.3 0.0
18/09:30am E 7 12 - - - - - - - 29.4 1014.2 0.0
18/09:00am E 6 9 - - - - - - - 29.3 1014.1 0.0
18/08:30am E 7 10 - - - - - - - 28.7 1013.7 0.0
18/08:00am SE 3 5 - - - - - - - 27.4 1013.6 0.0
18/07:30am E 2 3 - - - - - - - 26.2 1013.4 0.0
18/07:00am E 2 3 - - - - - - - 25.4 1013.0 0.0
18/06:30am E 2 2 - - - - - - - 24.9 1012.4 0.0
18/06:00am E 2 2 - - - - - - - 25.0 1012.0 0.0
18/05:30am CALM 0 0 - - - - - - - 25.0 1011.7 0.0
18/05:00am CALM 0 0 - - - - - - - 25.3 1011.6 0.0
18/04:30am E 2 2 - - - - - - - 25.1 1011.6 0.0
18/04:00am E 2 3 - - - - - - - 25.3 1011.6 0.0
18/03:30am E 2 3 - - - - - - - 25.2 1011.6 0.0
18/03:00am ENE 4 8 - - - - - - - 25.1 1011.6 0.0
18/02:30am E 4 5 - - - - - - - 24.8 1011.6 0.0
18/02:00am E 2 3 - - - - - - - 24.7 1011.8 0.0
18/01:30am E 2 3 - - - - - - - 24.8 1011.8 0.0
18/01:00am E 2 3 - - - - - - - 24.9 1012.1 0.0
18/12:30am ENE 2 2 - - - - - - - 24.9 1012.3 0.0
18/12:00am ENE 3 4 - - - - - - - 25.0 1012.4 0.0
 
Date/Time
CST
Wind Sea
Height
m
Swell Vis
km
Cloud Weather Temp
°C
Press
hPa
Rain since
9am
mm
Dir  Spd
kts
Gust
kts
Height
m
Period
s
Dir
17/11:30pm ENE 3 4 - - - - - - - 24.9 1012.7 0.0
17/11:00pm ENE 2 3 - - - - - - - 25.2 1012.8 0.0
17/10:30pm NE 2 2 - - - - - - - 25.3 1012.8 0.0
17/10:00pm ENE 2 2 - - - - - - - 25.5 1012.7 0.0
17/09:30pm ENE 2 2 - - - - - - - 25.6 1012.6 0.0
17/09:00pm ENE 2 3 - - - - - - - 25.8 1012.4 0.0
17/08:30pm ENE 2 3 - - - - - - - 26.0 1012.3 0.0
17/08:00pm NE 2 3 - - - - - - - 26.3 1011.8 0.0
17/07:30pm ENE 2 3 - - - - - - - 26.7 1011.5 0.0
17/07:00pm ENE 5 8 - - - - - - - 27.2 1011.3 0.0
17/06:30pm ENE 6 11 - - - - - - - 27.8 1011.2 0.0
17/06:00pm ENE 8 12 - - - - - - - 28.6 1010.7 0.0
17/05:30pm ENE 7 11 - - - - - - - 30.1 1010.4 0.0
17/05:00pm E 10 16 - - - - - - - 30.3 1010.2 0.0
17/04:30pm E 9 15 - - - - - - - 31.4 1010.2 0.0
17/04:00pm ENE 9 15 - - - - - - - 31.1 1010.4 0.0
17/03:30pm ENE 10 16 - - - - - - - 31.0 1010.7 0.0
17/03:00pm E 11 18 - - - - - - - 31.4 1011.0 0.0
17/02:30pm E 11 17 - - - - - - - 31.9 1011.3 0.0
17/02:00pm ENE 7 11 - - - - - - - 32.6 1011.6 0.0
17/01:30pm ENE 10 14 - - - - - - - 31.7 1012.1 0.0
17/01:00pm E 8 13 - - - - - - - 30.8 1012.5 0.0
17/12:30pm ENE 9 13 - - - - - - - 30.6 1013.0 0.0
17/12:00pm ENE 9 14 - - - - - - - 30.4 1013.3 0.0
17/11:30am ENE 9 14 - - - - - - - 30.7 1013.7 0.0
17/11:00am ESE 7 11 - - - - - - - 30.7 1013.9 0.0
17/10:30am ESE 7 13 - - - - - - - 30.1 1014.4 0.0
17/10:00am ESE 6 8 - - - - - - - 29.7 1014.4 0.0
17/09:30am E 6 9 - - - - - - - 28.8 1014.1 0.0
17/09:00am E 7 11 - - - - - - - 28.1 1013.7 0.0
17/08:30am E 6 9 - - - - - - - 27.0 1013.6 0.0
17/08:00am ESE 4 6 - - - - - - - 25.9 1013.2 0.0
17/07:30am E 3 5 - - - - - - - 25.8 1013.2 0.0
17/07:00am E 4 6 - - - - - - - 25.9 1012.9 0.0
17/06:30am E 4 6 - - - - - - - 25.9 1012.7 0.0
17/06:00am E 5 9 - - - - - - - 26.1 1012.3 0.0
17/05:30am E 5 8 - - - - - - - 26.0 1011.9 0.0
17/05:00am E 7 10 - - - - - - - 26.0 1011.6 0.0
17/04:30am E 8 12 - - - - - - - 26.0 1011.5 0.0
17/04:00am E 6 9 - - - - - - - 25.8 1011.3 0.0
17/03:30am E 5 8 - - - - - - - 25.8 1011.3 0.0
17/03:00am E 6 9 - - - - - - - 25.5 1011.3 0.0
17/02:30am E 4 6 - - - - - - - 25.3 1011.4 0.0
17/02:00am ENE 6 9 - - - - - - - 25.6 1011.7 0.0
17/01:30am ENE 7 11 - - - - - - - 25.6 1012.0 0.0
17/01:00am ENE 8 14 - - - - - - - 25.7 1012.3 0.0
17/12:30am ENE 6 9 - - - - - - - 25.4 1012.6 0.0
17/12:00am ENE 4 6 - - - - - - - 25.0 1012.9 0.0
 
Date/Time
CST
Wind Sea
Height
m
Swell Vis
km
Cloud Weather Temp
°C
Press
hPa
Rain since
9am
mm
Dir  Spd
kts
Gust
kts
Height
m
Period
s
Dir
16/11:30pm ENE 4 6 - - - - - - - 25.1 1013.1 0.0
16/11:00pm ENE 4 5 - - - - - - - 25.3 1013.0 0.0
16/10:30pm ENE 3 5 - - - - - - - 25.5 1013.1 0.0
16/10:00pm ENE 3 5 - - - - - - - 25.5 1013.1 0.0
16/09:30pm ENE 3 4 - - - - - - - 25.4 1012.8 0.0
16/09:00pm NE 5 6 - - - - - - - 25.6 1012.6 0.0
16/08:30pm ENE 4 5 - - - - - - - 25.6 1012.5 0.0
16/08:00pm ENE 4 7 - - - - - - - 25.9 1012.4 0.0
16/07:30pm ENE 6 9 - - - - - - - 26.1 1012.1 0.0
16/07:00pm ENE 6 10 - - - - - - - 26.4 1011.7 0.0
16/06:30pm ENE 9 15 - - - - - - - 26.8 1011.5 0.0
16/06:00pm ENE 10 15 - - - - - - - 27.7 1011.2 0.0
16/05:30pm ENE 11 16 - - - - - - - 28.5 1010.9 0.0
16/05:00pm ENE 11 17 - - - - - - - 28.9 1011.0 0.0
16/04:30pm ENE 11 16 - - - - - - - 29.5 1011.0 0.0
16/04:00pm E 10 16 - - - - - - - 30.5 1011.1 0.0
16/03:30pm ENE 11 17 - - - - - - - 30.1 1011.1 0.0
16/03:00pm ENE 11 17 - - - - - - - 29.8 1011.5 0.0
16/02:30pm E 12 17 - - - - - - - 30.3 1011.8 0.0
16/02:00pm ENE 12 18 - - - - - - - 31.3 1012.0 0.0
16/01:30pm E 12 20 - - - - - - - 31.1 1012.6 0.0
16/01:00pm E 12 18 - - - - - - - 30.3 1013.1 0.0
16/12:30pm E 10 16 - - - - - - - 30.7 1013.5 0.0
16/12:00pm E 12 20 - - - - - - - 29.6 1013.9 0.0
16/11:30am E 12 17 - - - - - - - 29.5 1014.0 0.0
16/11:00am ESE 11 17 - - - - - - - 29.4 1014.4 0.0
16/10:30am E 10 19 - - - - - - - 29.3 1014.6 0.0
16/10:00am E 12 16 - - - - - - - 29.2 1014.7 0.0
16/09:30am E 10 17 - - - - - - - 28.8 1014.4 0.0
16/09:00am E 10 16 - - - - - - - 28.9 1014.3 0.0
16/08:30am E 11 18 - - - - - - - 27.8 1013.9 0.0
16/08:00am E 9 14 - - - - - - - 27.6 1013.6 0.0
16/07:30am E 6 9 - - - - - - - 26.4 1013.0 0.0
16/07:00am E 6 9 - - - - - - - 25.4 1012.6 0.0
16/06:30am E 6 9 - - - - - - - 25.2 1012.3 0.0
16/06:00am E 7 11 - - - - - - - 25.3 1012.0 0.0
16/05:30am ENE 8 13 - - - - - - - 25.3 1011.7 0.0
16/05:00am E 7 11 - - - - - - - 25.4 1011.5 0.0
16/04:30am E 7 14 - - - - - - - 25.4 1011.5 0.0
16/04:00am E 7 12 - - - - - - - 25.4 1011.2 0.0
16/03:30am E 7 12 - - - - - - - 25.5 1011.3 0.0
16/03:00am E 7 10 - - - - - - - 25.6 1011.6 0.0
16/02:30am E 8 12 - - - - - - - 25.7 1011.7 0.0
16/02:00am E 7 12 - - - - - - - 25.7 1011.8 0.0
16/01:30am E 7 12 - - - - - - - 25.8 1012.2 0.0
16/01:00am E 8 13 - - - - - - - 25.9 1012.4 0.0
16/12:30am ENE 8 12 - - - - - - - 25.9 1012.8 0.0
16/12:00am ENE 9 13 - - - - - - - 26.1 1012.9 0.0
 
Date/Time
CST
Wind Sea
Height
m
Swell Vis
km
Cloud Weather Temp
°C
Press
hPa
Rain since
9am
mm
Dir  Spd
kts
Gust
kts
Height
m
Period
s
Dir
15/11:30pm ENE 9 16 - - - - - - - 26.1 1013.2 0.0
15/11:00pm ENE 11 17 - - - - - - - 26.3 1013.3 0.0
15/10:30pm ENE 10 16 - - - - - - - 26.3 1013.4 0.0
15/10:00pm ENE 9 14 - - - - - - - 26.3 1013.3 0.0
15/09:30pm ENE 9 15 - - - - - - - 26.4 1013.1 0.0
15/09:00pm ENE 9 13 - - - - - - - 26.2 1012.8 0.0
15/08:30pm ENE 7 11 - - - - - - - 26.1 1012.5 0.0
15/08:00pm ENE 7 10 - - - - - - - 26.1 1012.3 0.0
15/07:30pm ENE 7 10 - - - - - - - 26.2 1011.9 0.0
15/07:00pm ENE 7 10 - - - - - - - 26.4 1011.6 0.0

Other formats

Comma delimited format used in spreadsheet applications
http://www.bom.gov.au/fwo/IDD60701/IDD60701.94108.axf

JavaScript Object Notation format (JSON) in row-major order
http://www.bom.gov.au/fwo/IDD60701/IDD60701.94108.json

Data quality

Most of these data are generated automatically and are frequently updated. Quality checks on data are not normally performed. It is possible for incorrect values to appear. Refer to information at About Latest Weather Observations and please check the disclaimer before using these data.